createdAt,value
2022-08-07T00:00:18.878Z,13.38
2022-08-07T00:03:08.599Z,13.33
2022-08-07T00:05:38.137Z,13.26
2022-08-07T00:08:07.859Z,13.19
2022-08-07T00:10:48.000Z,13.11
2022-08-07T00:13:26.735Z,13.03
2022-08-07T00:15:56.867Z,12.92
2022-08-07T00:18:28.583Z,12.82
2022-08-07T00:21:01.434Z,12.75
2022-08-07T00:23:30.746Z,12.68
2022-08-07T00:26:12.858Z,12.52
2022-08-07T00:28:55.694Z,12.48
2022-08-07T00:31:38.180Z,12.35
2022-08-07T00:34:09.829Z,12.31
2022-08-07T00:36:43.338Z,12.31
2022-08-07T00:39:17.001Z,12.26
2022-08-07T00:42:01.665Z,12.10
2022-08-07T00:44:30.561Z,12.14
2022-08-07T00:47:06.525Z,12.03
2022-08-07T00:50:19.403Z,12.00
2022-08-07T00:52:33.182Z,11.95
2022-08-07T00:55:04.699Z,11.88
2022-08-07T00:57:38.180Z,11.78
2022-08-07T01:00:23.623Z,11.78
2022-08-07T01:02:51.706Z,11.65
2022-08-07T01:05:20.861Z,11.58
2022-08-07T01:07:52.712Z,11.58
2022-08-07T01:10:22.716Z,11.50
2022-08-07T01:12:53.880Z,11.37
2022-08-07T01:15:35.905Z,11.14
2022-08-07T01:18:17.196Z,11.23
2022-08-07T01:20:57.300Z,11.20
2022-08-07T01:23:38.778Z,11.14
2022-08-07T01:26:13.192Z,11.04
2022-08-07T01:28:48.617Z,11.01
2022-08-07T01:31:30.021Z,10.99
2022-08-07T01:34:10.689Z,10.98
2022-08-07T01:36:44.072Z,10.66
2022-08-07T01:39:17.508Z,10.94
2022-08-07T01:42:38.883Z,10.92
2022-08-07T01:44:52.765Z,10.82
2022-08-07T01:48:18.555Z,10.82
2022-08-07T01:50:10.814Z,10.82
2022-08-07T01:52:40.884Z,10.78
2022-08-07T01:55:22.246Z,10.72
2022-08-07T01:58:01.184Z,10.68
2022-08-07T02:00:35.585Z,10.54
2022-08-07T02:03:21.672Z,10.43
2022-08-07T02:05:59.340Z,10.43
2022-08-07T02:08:31.315Z,10.36
2022-08-07T02:11:00.629Z,10.33
2022-08-07T02:13:57.218Z,10.36
2022-08-07T02:16:28.703Z,10.28
2022-08-07T02:20:06.750Z,10.33
2022-08-07T02:21:58.860Z,10.30
2022-08-07T02:24:29.345Z,10.26
2022-08-07T02:27:01.139Z,10.14
2022-08-07T02:29:32.325Z,10.24
2022-08-07T02:32:04.590Z,10.21
2022-08-07T02:34:33.936Z,10.16
2022-08-07T02:37:08.279Z,10.13
2022-08-07T02:39:43.086Z,10.10
2022-08-07T02:42:18.115Z,10.02
2022-08-07T02:44:51.948Z,9.93
2022-08-07T02:47:25.169Z,10.00
2022-08-07T02:50:02.212Z,9.89
2022-08-07T02:52:38.755Z,9.90
2022-08-07T02:55:27.654Z,9.84
2022-08-07T02:58:11.927Z,9.77
2022-08-07T03:00:46.900Z,9.43
2022-08-07T03:03:22.547Z,9.70
2022-08-07T03:05:54.600Z,9.64
2022-08-07T03:08:26.899Z,9.69
2022-08-07T03:11:00.538Z,9.57
2022-08-07T03:13:39.060Z,9.67
2022-08-07T03:16:18.088Z,9.61
2022-08-07T03:18:51.995Z,9.64
2022-08-07T03:21:20.852Z,9.66
2022-08-07T03:24:19.376Z,9.68
2022-08-07T03:26:42.842Z,9.58
2022-08-07T03:29:21.247Z,9.65
2022-08-07T03:31:51.664Z,9.65
2022-08-07T03:34:22.865Z,9.55
2022-08-07T03:37:00.952Z,9.57
2022-08-07T03:39:59.350Z,9.57
2022-08-07T03:42:30.880Z,9.60
2022-08-07T03:44:59.771Z,9.66
2022-08-07T03:47:48.240Z,9.72
2022-08-07T03:50:22.861Z,9.76
2022-08-07T03:52:54.085Z,9.78
2022-08-07T03:55:23.680Z,9.84
2022-08-07T03:59:05.688Z,9.75
2022-08-07T04:01:02.342Z,9.87
2022-08-07T04:03:49.681Z,9.83
2022-08-07T04:06:37.615Z,9.93
2022-08-07T04:09:15.859Z,10.07
2022-08-07T04:12:23.871Z,10.10
2022-08-07T04:14:46.019Z,10.28
2022-08-07T04:17:20.884Z,10.32
2022-08-07T04:19:54.213Z,10.48
2022-08-07T04:22:28.824Z,10.52
2022-08-07T04:25:01.617Z,10.68
2022-08-07T04:27:35.468Z,10.82
2022-08-07T04:30:35.943Z,10.98
2022-08-07T04:33:08.799Z,11.18
2022-08-07T04:35:39.550Z,11.30
2022-08-07T04:38:16.302Z,11.50
2022-08-07T04:40:53.003Z,11.60
2022-08-07T04:44:10.578Z,11.83
2022-08-07T04:47:03.797Z,11.98
2022-08-07T04:50:13.613Z,12.13
2022-08-07T04:53:00.361Z,12.33
2022-08-07T04:58:11.508Z,12.45
2022-08-07T04:59:17.047Z,12.62
2022-08-07T05:02:11.401Z,12.90
2022-08-07T05:04:50.275Z,13.03
2022-08-07T05:07:48.565Z,13.18
2022-08-07T05:10:27.629Z,13.55
2022-08-07T05:13:10.069Z,13.75
2022-08-07T05:15:51.600Z,13.85
2022-08-07T05:18:34.909Z,14.12
2022-08-07T05:21:04.775Z,14.27
2022-08-07T05:23:42.711Z,14.52
2022-08-07T05:26:23.608Z,14.92
2022-08-07T05:28:56.744Z,15.24
2022-08-07T05:31:37.696Z,15.37
2022-08-07T05:34:12.228Z,15.76
2022-08-07T05:36:49.169Z,16.15
2022-08-07T05:40:17.544Z,16.41
2022-08-07T05:42:34.208Z,16.77
2022-08-07T05:45:26.243Z,16.98
2022-08-07T05:48:02.548Z,17.38
2022-08-07T05:50:44.877Z,17.67
2022-08-07T05:54:11.955Z,18.03
2022-08-07T05:56:06.812Z,18.36
2022-08-07T05:58:41.580Z,18.70
2022-08-07T06:01:20.818Z,18.83
2022-08-07T06:03:58.623Z,19.05
2022-08-07T06:06:35.284Z,19.55
2022-08-07T06:09:07.889Z,19.87
2022-08-07T06:11:40.585Z,19.95
2022-08-07T06:14:11.499Z,20.31
2022-08-07T06:16:50.467Z,20.23
2022-08-07T06:19:57.721Z,20.25
2022-08-07T06:22:20.560Z,20.42
2022-08-07T06:25:01.345Z,20.29
2022-08-07T06:27:59.597Z,20.38
2022-08-07T06:30:32.488Z,20.32
2022-08-07T06:33:10.057Z,20.55
2022-08-07T06:35:48.193Z,20.67
2022-08-07T06:38:36.197Z,20.80
2022-08-07T06:41:09.814Z,21.20
2022-08-07T06:43:46.526Z,20.98
2022-08-07T06:46:31.380Z,21.25
2022-08-07T06:49:05.170Z,21.48
2022-08-07T06:51:49.864Z,21.96
2022-08-07T06:55:34.391Z,21.57
2022-08-07T06:57:10.137Z,21.15
2022-08-07T07:00:13.921Z,21.35
2022-08-07T07:02:53.321Z,20.99
2022-08-07T07:06:03.414Z,21.15
2022-08-07T07:08:12.319Z,21.58
2022-08-07T07:10:47.281Z,21.87
2022-08-07T07:13:57.402Z,21.94
2022-08-07T07:16:15.051Z,21.76
2022-08-07T07:18:52.517Z,21.56
2022-08-07T07:21:27.231Z,21.81
2022-08-07T07:24:12.522Z,21.72
2022-08-07T07:26:41.424Z,21.29
2022-08-07T07:29:56.058Z,21.79
2022-08-07T07:32:14.076Z,21.83
2022-08-07T07:34:48.902Z,22.21
2022-08-07T07:37:21.891Z,21.93
2022-08-07T07:40:15.317Z,21.46
2022-08-07T07:42:53.760Z,21.74
2022-08-07T07:46:38.457Z,22.06
2022-08-07T07:48:35.072Z,21.21
2022-08-07T07:51:07.675Z,21.65
2022-08-07T07:53:51.808Z,21.60
2022-08-07T07:56:29.732Z,21.32
2022-08-07T07:59:06.001Z,21.19
2022-08-07T08:02:01.998Z,20.84
2022-08-07T08:04:27.394Z,21.06
2022-08-07T08:06:55.733Z,20.93
2022-08-07T08:09:29.402Z,21.09
2022-08-07T08:12:03.890Z,20.88
2022-08-07T08:14:37.072Z,20.70
2022-08-07T08:17:14.209Z,20.82
2022-08-07T08:20:17.116Z,21.08
2022-08-07T08:23:09.429Z,21.40
2022-08-07T08:25:57.337Z,21.77
2022-08-07T08:28:37.697Z,21.50
2022-08-07T08:31:30.347Z,21.18
2022-08-07T08:34:10.607Z,21.15
2022-08-07T08:36:41.703Z,21.17
2022-08-07T08:39:15.281Z,21.15
2022-08-07T08:42:05.770Z,21.58
2022-08-07T08:44:55.665Z,21.72
2022-08-07T08:47:52.641Z,21.80
2022-08-07T08:50:39.954Z,21.75
2022-08-07T08:53:19.978Z,21.28
2022-08-07T08:55:55.238Z,21.36
2022-08-07T08:58:37.497Z,21.66
2022-08-07T09:01:18.432Z,21.69
2022-08-07T09:03:56.831Z,21.71
2022-08-07T09:06:38.196Z,22.14
2022-08-07T09:09:36.754Z,22.15
2022-08-07T09:12:31.129Z,21.70
2022-08-07T09:16:21.901Z,21.28
2022-08-07T09:18:15.895Z,21.26
2022-08-07T09:20:58.110Z,21.28
2022-08-07T09:24:31.271Z,21.25
2022-08-07T09:26:50.944Z,21.10
2022-08-07T09:30:06.180Z,20.79
2022-08-07T09:32:59.085Z,20.91
2022-08-07T09:36:12.916Z,21.16
2022-08-07T09:38:53.696Z,20.92
2022-08-07T09:42:02.974Z,21.04
2022-08-07T09:47:24.874Z,21.14
2022-08-07T09:47:59.178Z,20.98
2022-08-07T09:50:59.547Z,20.70
2022-08-07T09:53:41.109Z,20.66
2022-08-07T09:56:41.949Z,20.74
2022-08-07T10:00:01.245Z,20.66
2022-08-07T10:03:07.751Z,20.77
2022-08-07T10:06:17.479Z,20.88
2022-08-07T10:09:15.419Z,20.89
2022-08-07T10:12:15.142Z,20.85
2022-08-07T10:15:24.474Z,21.04
2022-08-07T10:18:26.577Z,21.12
2022-08-07T10:22:12.048Z,21.44
2022-08-07T10:24:57.897Z,21.56
2022-08-07T10:27:51.395Z,21.55
2022-08-07T10:30:26.537Z,21.57
2022-08-07T10:34:06.797Z,21.48
2022-08-07T10:36:29.980Z,21.07
2022-08-07T10:39:41.857Z,21.09
2022-08-07T10:42:37.570Z,21.34
2022-08-07T10:45:44.056Z,21.42
2022-08-07T10:48:58.192Z,21.33
2022-08-07T10:52:02.027Z,21.38
2022-08-07T10:54:41.156Z,21.69
2022-08-07T10:57:42.898Z,21.24
2022-08-07T11:00:36.177Z,21.05
2022-08-07T11:03:16.823Z,21.04
2022-08-07T11:05:50.554Z,20.89
2022-08-07T11:08:41.435Z,20.88
2022-08-07T11:11:16.608Z,20.88
2022-08-07T11:14:44.286Z,21.14
2022-08-07T11:17:09.047Z,21.30
2022-08-07T11:19:38.960Z,21.35
2022-08-07T11:22:26.330Z,21.37
2022-08-07T11:25:06.672Z,21.11
2022-08-07T11:28:02.319Z,20.83
2022-08-07T11:31:13.246Z,20.54
2022-08-07T11:33:53.769Z,20.42
2022-08-07T11:37:00.640Z,20.39
2022-08-07T11:40:00.588Z,20.53
2022-08-07T11:43:00.520Z,20.94
2022-08-07T11:46:01.502Z,21.32
2022-08-07T11:49:50.658Z,21.46
2022-08-07T11:52:29.431Z,21.57
2022-08-07T11:56:12.038Z,21.41
2022-08-07T11:58:21.053Z,21.27
2022-08-07T12:01:05.305Z,21.36
2022-08-07T12:03:42.179Z,21.33
2022-08-07T12:06:37.358Z,21.09
2022-08-07T12:09:16.454Z,21.27
2022-08-07T12:12:10.868Z,21.66
2022-08-07T12:14:51.441Z,22.15
2022-08-07T12:17:33.917Z,22.35
2022-08-07T12:20:30.834Z,22.64
2022-08-07T12:24:04.885Z,22.72
2022-08-07T12:26:46.086Z,22.54
2022-08-07T12:29:40.276Z,22.31
2022-08-07T12:32:38.605Z,22.28
2022-08-07T12:35:08.749Z,22.23
2022-08-07T12:38:10.081Z,22.00
2022-08-07T12:40:48.164Z,21.83
2022-08-07T12:44:03.503Z,21.71
2022-08-07T12:46:15.811Z,21.70
2022-08-07T12:49:25.524Z,21.45
2022-08-07T12:52:18.166Z,21.46
2022-08-07T12:55:17.629Z,21.44
2022-08-07T12:58:01.432Z,21.35
2022-08-07T13:00:49.942Z,21.54
2022-08-07T13:04:02.120Z,21.71
2022-08-07T13:06:54.183Z,21.90
2022-08-07T13:10:28.484Z,22.09
2022-08-07T13:13:13.570Z,22.36
2022-08-07T13:16:23.491Z,22.45
2022-08-07T13:19:18.150Z,22.26
2022-08-07T13:22:04.026Z,21.92
2022-08-07T13:24:52.537Z,21.74
2022-08-07T13:28:05.642Z,21.50
2022-08-07T13:30:19.346Z,21.47
2022-08-07T13:34:33.384Z,21.53
2022-08-07T13:36:19.625Z,21.65
2022-08-07T13:38:54.438Z,21.74
2022-08-07T13:41:29.361Z,22.02
2022-08-07T13:44:00.936Z,22.21
2022-08-07T13:46:37.587Z,22.30
2022-08-07T13:50:33.799Z,22.30
2022-08-07T13:52:04.865Z,22.33
2022-08-07T13:54:36.835Z,22.39
2022-08-07T13:57:09.879Z,22.53
2022-08-07T13:59:54.894Z,22.57
2022-08-07T14:02:33.387Z,22.59
2022-08-07T14:05:12.802Z,22.60
2022-08-07T14:07:59.763Z,22.41
2022-08-07T14:10:41.930Z,22.45
2022-08-07T14:13:16.398Z,22.68
2022-08-07T14:15:52.000Z,22.81
2022-08-07T14:18:29.888Z,22.68
2022-08-07T14:21:20.601Z,22.50
2022-08-07T14:24:02.174Z,22.64
2022-08-07T14:26:51.086Z,22.73
2022-08-07T14:30:07.596Z,22.70
2022-08-07T14:32:12.241Z,22.37
2022-08-07T14:34:47.286Z,21.92
2022-08-07T14:37:19.493Z,21.76
2022-08-07T14:40:16.418Z,21.55
2022-08-07T14:43:00.978Z,21.31
2022-08-07T14:45:50.973Z,21.12
2022-08-07T14:48:33.093Z,21.04
2022-08-07T14:51:15.710Z,21.04
2022-08-07T14:54:08.640Z,20.99
2022-08-07T14:56:33.692Z,20.97
2022-08-07T15:01:58.617Z,20.90
2022-08-07T15:04:29.007Z,20.92
2022-08-07T15:06:57.472Z,20.96
2022-08-07T15:09:59.978Z,21.00
2022-08-07T15:12:26.058Z,21.10
2022-08-07T15:15:21.199Z,21.27
2022-08-07T15:17:59.959Z,21.44
2022-08-07T15:25:12.827Z,21.70
2022-08-07T15:26:22.511Z,22.00
2022-08-07T15:29:00.946Z,21.93
2022-08-07T15:38:17.995Z,21.77
2022-08-07T15:43:53.850Z,21.72
2022-08-07T15:49:14.688Z,21.43
2022-08-07T15:54:27.737Z,21.08
2022-08-07T15:56:58.246Z,21.08
2022-08-07T15:59:39.543Z,21.06
2022-08-07T16:02:15.295Z,21.07
2022-08-07T16:04:44.191Z,21.11
2022-08-07T16:08:28.577Z,21.18
2022-08-07T16:10:16.645Z,21.14
2022-08-07T16:12:58.162Z,21.11
2022-08-07T16:15:57.939Z,21.31
2022-08-07T16:18:50.053Z,21.16
2022-08-07T16:21:44.076Z,21.27
2022-08-07T16:24:52.818Z,21.32
2022-08-07T16:27:42.142Z,21.38
2022-08-07T16:30:31.522Z,21.48
2022-08-07T16:34:03.353Z,21.50
2022-08-07T16:36:21.071Z,21.49
2022-08-07T16:39:10.505Z,21.55
2022-08-07T16:42:02.187Z,21.63
2022-08-07T16:47:51.627Z,21.62
2022-08-07T16:50:38.896Z,21.65
2022-08-07T16:54:01.469Z,21.64
2022-08-07T16:56:27.296Z,21.48
2022-08-07T16:59:11.294Z,21.52
2022-08-07T17:02:03.617Z,21.41
2022-08-07T17:04:50.925Z,21.40
2022-08-07T17:07:55.288Z,21.21
2022-08-07T17:10:33.183Z,21.15
2022-08-07T17:13:20.008Z,20.92
2022-08-07T17:16:06.396Z,20.84
2022-08-07T17:18:46.070Z,20.86
2022-08-07T17:21:22.822Z,20.87
2022-08-07T17:24:28.960Z,20.84
2022-08-07T17:27:09.372Z,20.76
2022-08-07T17:30:15.192Z,20.58
2022-08-07T17:34:18.057Z,20.16
2022-08-07T17:36:21.580Z,19.96
2022-08-07T17:39:15.317Z,19.84
2022-08-07T17:42:06.551Z,19.50
2022-08-07T17:44:50.016Z,19.50
2022-08-07T17:47:42.259Z,19.29
2022-08-07T17:50:42.573Z,19.15
2022-08-07T17:54:01.171Z,18.97
2022-08-07T17:56:55.671Z,18.67
2022-08-07T17:59:35.750Z,18.60
2022-08-07T18:02:27.539Z,18.46
2022-08-07T18:05:20.934Z,18.30
2022-08-07T18:08:24.285Z,18.14
2022-08-07T18:12:06.676Z,17.98
2022-08-07T18:14:23.764Z,17.79
2022-08-07T18:16:58.184Z,17.60
2022-08-07T18:21:03.743Z,17.49
2022-08-07T18:22:34.119Z,17.23
2022-08-07T18:25:18.968Z,16.97
2022-08-07T18:28:34.283Z,16.81
2022-08-07T18:31:18.424Z,16.58
2022-08-07T18:33:55.382Z,16.45
2022-08-07T18:36:33.089Z,16.24
2022-08-07T18:40:05.183Z,16.05
2022-08-07T18:42:19.772Z,15.85
2022-08-07T18:45:44.124Z,15.76
2022-08-07T18:50:05.164Z,15.67
2022-08-07T18:52:34.781Z,15.62
2022-08-07T18:54:33.761Z,15.56
2022-08-07T18:57:30.525Z,15.34
2022-08-07T19:00:34.250Z,15.28
2022-08-07T19:03:11.596Z,15.17
2022-08-07T19:06:02.137Z,15.10
2022-08-07T19:08:46.401Z,14.91
2022-08-07T19:11:36.193Z,14.79
2022-08-07T19:14:20.236Z,14.76
2022-08-07T19:17:06.778Z,14.71
2022-08-07T19:20:02.951Z,14.64
2022-08-07T19:22:38.153Z,14.55
2022-08-07T19:26:25.067Z,14.48
2022-08-07T19:28:29.763Z,14.45
2022-08-07T19:31:37.142Z,14.45
2022-08-07T19:33:58.573Z,14.37
2022-08-07T19:36:28.068Z,14.30
2022-08-07T19:38:58.795Z,14.22
2022-08-07T19:41:39.402Z,14.05
2022-08-07T19:44:21.334Z,14.01
2022-08-07T19:46:55.690Z,13.94
2022-08-07T19:49:57.279Z,13.98
2022-08-07T19:52:18.111Z,13.89
2022-08-07T19:54:56.204Z,13.80
2022-08-07T19:58:12.342Z,13.76
2022-08-07T20:00:55.315Z,13.71
2022-08-07T20:03:35.336Z,13.66
2022-08-07T20:06:05.080Z,13.55
2022-08-07T20:08:36.589Z,13.47
2022-08-07T20:11:10.170Z,13.38
2022-08-07T20:13:50.581Z,13.33
2022-08-07T20:16:35.608Z,13.29
2022-08-07T20:19:10.521Z,13.27
2022-08-07T20:21:41.812Z,13.21
2022-08-07T20:24:23.532Z,13.18
2022-08-07T20:26:59.106Z,13.19
2022-08-07T20:29:49.347Z,13.15
2022-08-07T20:32:36.202Z,13.11
2022-08-07T20:35:36.593Z,13.06
2022-08-07T20:38:22.597Z,12.98
2022-08-07T20:40:54.350Z,12.95
2022-08-07T20:43:25.463Z,12.93
2022-08-07T20:46:28.389Z,12.88
2022-08-07T20:49:54.037Z,12.78
2022-08-07T20:51:35.647Z,12.71
2022-08-07T20:54:12.384Z,12.71
2022-08-07T20:56:46.289Z,12.68
2022-08-07T21:00:04.242Z,12.52
2022-08-07T21:02:38.380Z,12.51
2022-08-07T21:05:16.265Z,12.44
2022-08-07T21:07:49.526Z,12.40
2022-08-07T21:10:31.627Z,12.38
2022-08-07T21:13:04.729Z,12.38
2022-08-07T21:15:58.398Z,12.38
2022-08-07T21:18:29.491Z,12.36
2022-08-07T21:21:02.200Z,12.26
2022-08-07T21:24:08.322Z,12.31
2022-08-07T21:26:55.715Z,12.24
2022-08-07T21:29:39.963Z,12.15
2022-08-07T21:32:47.980Z,12.09
2022-08-07T21:35:34.593Z,11.94
2022-08-07T21:38:27.494Z,11.90
2022-08-07T21:41:14.029Z,11.95
2022-08-07T21:43:56.095Z,11.86
2022-08-07T21:46:47.653Z,11.80
2022-08-07T21:49:25.743Z,11.86
2022-08-07T21:52:11.550Z,11.81
2022-08-07T21:54:53.729Z,11.85
2022-08-07T21:57:52.547Z,11.85
2022-08-07T22:00:25.732Z,11.80
2022-08-07T22:03:30.704Z,11.78
2022-08-07T22:06:04.811Z,11.80
2022-08-07T22:08:43.703Z,11.77
2022-08-07T22:11:17.834Z,11.72
2022-08-07T22:13:51.015Z,11.67
2022-08-07T22:16:42.183Z,11.68
2022-08-07T22:19:23.806Z,11.68
2022-08-07T22:22:21.444Z,11.69
2022-08-07T22:25:11.316Z,11.69
2022-08-07T22:28:31.408Z,11.68
2022-08-07T22:32:00.467Z,11.66
2022-08-07T22:34:33.223Z,11.66
2022-08-07T22:38:02.748Z,11.61
2022-08-07T22:40:33.888Z,11.57
2022-08-07T22:43:14.121Z,11.51
2022-08-07T22:46:21.700Z,11.43
2022-08-07T22:48:56.257Z,11.38
2022-08-07T22:51:41.276Z,11.35
2022-08-07T22:54:24.669Z,11.34
2022-08-07T22:57:06.118Z,11.30
2022-08-07T23:00:17.963Z,11.30
2022-08-07T23:03:28.581Z,11.23
2022-08-07T23:06:23.907Z,11.22
2022-08-07T23:10:06.250Z,11.25
2022-08-07T23:12:10.461Z,11.23
2022-08-07T23:15:10.480Z,11.27
2022-08-07T23:18:04.829Z,11.27
2022-08-07T23:21:03.112Z,11.25
2022-08-07T23:24:05.855Z,11.22
2022-08-07T23:27:06.003Z,11.17
2022-08-07T23:30:37.395Z,11.16
2022-08-07T23:34:23.804Z,11.12
2022-08-07T23:36:17.453Z,11.13
2022-08-07T23:39:09.639Z,11.16
2022-08-07T23:42:08.512Z,11.14
2022-08-07T23:45:32.998Z,11.18
2022-08-07T23:49:07.497Z,11.19
2022-08-07T23:53:05.181Z,11.08
2022-08-07T23:54:52.113Z,10.97
2022-08-07T23:57:28.655Z,10.86
